createdAt,value
2023-02-27T00:02:00.136Z,82.82
2023-02-27T00:04:26.723Z,82.95
2023-02-27T00:06:53.157Z,82.66
2023-02-27T00:09:19.611Z,82.74
2023-02-27T00:11:46.058Z,82.89
2023-02-27T00:14:12.535Z,83.03
2023-02-27T00:16:38.968Z,83.08
2023-02-27T00:19:05.498Z,82.94
2023-02-27T00:21:32.606Z,83.03
2023-02-27T00:23:59.190Z,82.86
2023-02-27T00:26:25.886Z,83.03
2023-02-27T00:28:52.318Z,83.19
2023-02-27T00:31:19.178Z,82.94
2023-02-27T00:33:45.702Z,82.87
2023-02-27T00:36:12.299Z,82.98
2023-02-27T00:38:38.781Z,82.85
2023-02-27T00:41:05.323Z,83.04
2023-02-27T00:43:31.805Z,83.10
2023-02-27T00:45:58.616Z,83.20
2023-02-27T00:48:25.104Z,82.99
2023-02-27T00:50:51.643Z,83.23
2023-02-27T00:53:18.465Z,83.06
2023-02-27T00:55:44.914Z,82.92
2023-02-27T00:58:11.603Z,83.28
2023-02-27T01:00:38.182Z,82.97
2023-02-27T01:03:04.898Z,83.05
2023-02-27T01:05:31.390Z,83.39
2023-02-27T01:07:59.514Z,83.46
2023-02-27T01:10:25.998Z,83.62
2023-02-27T01:12:52.456Z,83.38
2023-02-27T01:15:19.017Z,83.67
2023-02-27T01:17:48.043Z,83.48
2023-02-27T01:20:15.303Z,83.46
2023-02-27T01:22:41.844Z,83.31
2023-02-27T01:25:10.385Z,83.86
2023-02-27T01:27:39.513Z,83.55
2023-02-27T01:30:07.000Z,83.86
2023-02-27T01:32:33.633Z,83.61
2023-02-27T01:35:00.133Z,83.69
2023-02-27T01:37:26.585Z,83.91
2023-02-27T01:39:53.047Z,83.88
2023-02-27T01:42:22.962Z,84.57
2023-02-27T01:45:18.294Z,84.35
2023-02-27T01:47:50.964Z,84.44
2023-02-27T01:50:18.962Z,84.42
2023-02-27T01:52:51.505Z,84.34
2023-02-27T01:55:19.823Z,84.74
2023-02-27T01:57:48.395Z,84.86
2023-02-27T02:00:15.751Z,84.86
2023-02-27T02:02:49.843Z,85.01
2023-02-27T02:05:16.516Z,85.30
2023-02-27T02:07:45.397Z,85.41
2023-02-27T02:10:14.972Z,85.48
2023-02-27T02:12:41.750Z,85.44
2023-02-27T02:15:09.406Z,85.75
2023-02-27T02:17:59.965Z,85.97
2023-02-27T02:20:54.340Z,85.96
2023-02-27T02:23:58.299Z,86.29
2023-02-27T02:26:47.609Z,86.25
2023-02-27T02:29:32.560Z,86.27
2023-02-27T02:32:36.934Z,86.17
2023-02-27T02:35:41.001Z,85.87
2023-02-27T02:38:45.032Z,85.79
2023-02-27T02:41:39.558Z,86.67
2023-02-27T02:44:27.405Z,86.75
2023-02-27T02:47:08.086Z,86.99
2023-02-27T02:50:05.352Z,86.95
2023-02-27T02:52:51.420Z,87.10
2023-02-27T02:55:34.386Z,87.68
2023-02-27T02:58:21.126Z,87.84
2023-02-27T03:00:55.458Z,88.02
2023-02-27T03:03:27.748Z,88.23
2023-02-27T03:06:06.519Z,88.43
2023-02-27T03:08:58.350Z,88.15
2023-02-27T03:11:29.644Z,88.41
2023-02-27T03:14:08.089Z,88.66
2023-02-27T03:16:48.487Z,88.78
2023-02-27T03:19:23.341Z,88.74
2023-02-27T03:21:55.973Z,88.83
2023-02-27T03:24:36.198Z,88.72
2023-02-27T03:27:06.120Z,88.79
2023-02-27T03:30:01.234Z,88.28
2023-02-27T03:32:35.662Z,88.69
2023-02-27T03:35:04.650Z,88.51
2023-02-27T03:37:58.961Z,88.88
2023-02-27T03:40:33.844Z,89.07
2023-02-27T03:43:17.264Z,89.23
2023-02-27T03:46:25.385Z,89.46
2023-02-27T03:48:52.933Z,89.59
2023-02-27T03:51:22.470Z,89.58
2023-02-27T03:54:03.760Z,89.36
2023-02-27T03:56:42.891Z,89.67
2023-02-27T03:59:09.710Z,89.49
2023-02-27T04:01:40.380Z,89.58
2023-02-27T04:04:15.251Z,89.47
2023-02-27T04:07:28.338Z,89.45
2023-02-27T04:10:04.094Z,89.23
2023-02-27T04:12:38.468Z,90.00
2023-02-27T04:15:18.153Z,90.40
2023-02-27T04:18:21.257Z,90.57
2023-02-27T04:20:58.057Z,90.92
2023-02-27T04:23:42.765Z,91.09
2023-02-27T04:26:25.253Z,90.79
2023-02-27T04:29:08.438Z,91.32
2023-02-27T04:31:58.634Z,91.37
2023-02-27T04:34:40.567Z,91.68
2023-02-27T04:37:12.974Z,91.72
2023-02-27T04:39:51.773Z,91.89
2023-02-27T04:42:24.394Z,92.03
2023-02-27T04:44:54.814Z,92.19
2023-02-27T04:47:24.038Z,91.91
2023-02-27T04:49:59.319Z,91.66
2023-02-27T04:52:33.567Z,91.93
2023-02-27T04:55:17.776Z,91.28
2023-02-27T04:57:52.630Z,92.09
2023-02-27T05:00:22.429Z,92.27
2023-02-27T05:02:54.976Z,92.17
2023-02-27T05:05:26.654Z,92.38
2023-02-27T05:08:20.560Z,92.29
2023-02-27T05:10:53.748Z,92.62
2023-02-27T05:13:31.594Z,93.18
2023-02-27T05:16:07.542Z,92.82
2023-02-27T05:18:34.770Z,92.87
2023-02-27T05:21:29.641Z,92.73
2023-02-27T05:24:05.952Z,93.34
2023-02-27T05:26:57.064Z,93.30
2023-02-27T05:29:23.585Z,93.20
2023-02-27T05:32:23.937Z,93.65
2023-02-27T05:34:56.508Z,93.70
2023-02-27T05:37:33.485Z,93.39
2023-02-27T05:40:06.507Z,93.96
2023-02-27T05:42:38.119Z,93.90
2023-02-27T05:45:11.596Z,93.77
2023-02-27T05:47:43.878Z,94.17
2023-02-27T05:50:14.395Z,94.07
2023-02-27T05:52:42.919Z,94.17
2023-02-27T05:55:17.797Z,94.37
2023-02-27T05:57:51.393Z,94.62
2023-02-27T06:00:29.715Z,94.93
2023-02-27T06:02:56.326Z,94.76
2023-02-27T06:05:26.015Z,95.14
2023-02-27T06:07:52.570Z,95.05
2023-02-27T06:10:21.257Z,95.60
2023-02-27T06:12:48.221Z,95.33
2023-02-27T06:15:14.803Z,95.67
2023-02-27T06:17:41.246Z,95.92
2023-02-27T06:20:09.038Z,95.75
2023-02-27T06:22:35.930Z,96.16
2023-02-27T06:25:03.840Z,96.27
2023-02-27T06:27:30.565Z,96.28
2023-02-27T06:29:57.624Z,96.03
2023-02-27T06:32:25.709Z,96.38
2023-02-27T06:34:53.131Z,96.26
2023-02-27T06:37:21.515Z,96.00
2023-02-27T06:39:48.115Z,96.32
2023-02-27T06:42:14.633Z,96.35
2023-02-27T06:44:41.119Z,96.67
2023-02-27T06:47:07.581Z,96.74
2023-02-27T06:49:34.285Z,96.78
2023-02-27T06:52:00.719Z,96.75
2023-02-27T06:54:27.189Z,97.00
2023-02-27T06:56:53.671Z,96.77
2023-02-27T06:59:20.175Z,97.08
2023-02-27T07:01:46.696Z,97.12
2023-02-27T07:04:15.302Z,97.30
2023-02-27T07:07:32.697Z,96.89
2023-02-27T07:09:28.618Z,97.15
2023-02-27T07:11:55.135Z,97.11
2023-02-27T07:14:22.169Z,96.78
2023-02-27T07:16:50.980Z,97.21
2023-02-27T07:19:18.460Z,96.65
2023-02-27T07:21:45.346Z,96.87
2023-02-27T07:24:11.847Z,96.91
2023-02-27T07:26:38.543Z,96.87
2023-02-27T07:29:05.609Z,96.44
2023-02-27T07:31:32.663Z,96.53
2023-02-27T07:33:59.350Z,96.65
2023-02-27T07:36:26.069Z,96.70
2023-02-27T07:38:52.797Z,96.56
2023-02-27T07:41:30.063Z,96.66
2023-02-27T07:43:59.804Z,96.06
2023-02-27T07:46:27.651Z,96.02
2023-02-27T07:48:54.814Z,95.92
2023-02-27T07:51:21.567Z,95.31
2023-02-27T07:53:48.115Z,95.16
2023-02-27T07:56:14.763Z,94.84
2023-02-27T07:58:41.213Z,93.94
2023-02-27T08:01:07.894Z,93.63
2023-02-27T08:03:34.438Z,93.02
2023-02-27T08:06:02.362Z,92.74
2023-02-27T08:08:29.568Z,92.56
2023-02-27T08:10:56.218Z,91.62
2023-02-27T08:13:42.280Z,90.65
2023-02-27T08:16:09.359Z,90.32
2023-02-27T08:18:36.161Z,89.81
2023-02-27T08:21:04.937Z,89.25
2023-02-27T08:23:32.484Z,88.75
2023-02-27T08:25:59.035Z,88.02
2023-02-27T08:28:25.574Z,87.74
2023-02-27T08:30:52.059Z,87.20
2023-02-27T08:33:18.556Z,86.34
2023-02-27T08:35:45.416Z,85.45
2023-02-27T08:38:11.971Z,85.06
2023-02-27T08:40:38.497Z,84.65
2023-02-27T08:43:04.997Z,84.05
2023-02-27T08:45:31.705Z,82.90
2023-02-27T08:47:58.291Z,81.83
2023-02-27T08:50:24.736Z,81.88
2023-02-27T08:52:51.221Z,81.62
2023-02-27T08:55:17.772Z,81.08
2023-02-27T08:57:44.304Z,80.94
2023-02-27T09:00:14.499Z,80.42
2023-02-27T09:02:41.543Z,80.09
2023-02-27T09:05:08.570Z,79.66
2023-02-27T09:07:35.086Z,78.81
2023-02-27T09:10:01.591Z,78.88
2023-02-27T09:12:28.098Z,79.07
2023-02-27T09:14:54.791Z,78.64
2023-02-27T09:17:21.688Z,78.69
2023-02-27T09:19:48.205Z,78.13
2023-02-27T09:22:14.706Z,77.28
2023-02-27T09:24:41.167Z,77.37
2023-02-27T09:27:07.685Z,77.19
2023-02-27T09:29:34.332Z,76.76
2023-02-27T09:32:01.165Z,76.50
2023-02-27T09:34:27.743Z,76.49
2023-02-27T09:36:54.227Z,75.76
2023-02-27T09:39:20.702Z,74.91
2023-02-27T09:42:06.624Z,74.01
2023-02-27T09:44:46.607Z,74.73
2023-02-27T09:47:35.576Z,74.51
2023-02-27T09:50:10.926Z,73.68
2023-02-27T09:52:37.685Z,71.87
2023-02-27T09:55:19.618Z,71.27
2023-02-27T09:57:51.705Z,72.15
2023-02-27T10:00:38.252Z,71.43
2023-02-27T10:03:43.617Z,70.79
2023-02-27T10:06:27.050Z,70.01
2023-02-27T10:09:06.228Z,70.00
2023-02-27T10:11:49.155Z,69.86
2023-02-27T10:14:39.431Z,69.09
2023-02-27T10:17:13.448Z,68.01
2023-02-27T10:19:41.318Z,66.14
2023-02-27T10:22:14.195Z,64.38
2023-02-27T10:24:47.349Z,63.72
2023-02-27T10:27:17.649Z,62.97
2023-02-27T10:29:44.213Z,63.01
2023-02-27T10:32:23.525Z,63.37
2023-02-27T10:35:16.616Z,63.52
2023-02-27T10:37:49.502Z,63.33
2023-02-27T10:40:17.668Z,62.64
2023-02-27T10:42:44.877Z,62.29
2023-02-27T10:45:15.729Z,61.23
2023-02-27T10:47:42.565Z,61.79
2023-02-27T10:50:23.150Z,61.20
2023-02-27T10:52:56.479Z,61.02
2023-02-27T10:55:29.510Z,60.21
2023-02-27T10:58:01.406Z,59.53
2023-02-27T11:00:54.121Z,58.42
2023-02-27T11:03:26.487Z,56.98
2023-02-27T11:05:56.188Z,56.20
2023-02-27T11:08:24.395Z,56.02
2023-02-27T11:10:58.936Z,56.56
2023-02-27T11:13:28.490Z,56.05
2023-02-27T11:16:04.006Z,55.29
2023-02-27T11:18:31.349Z,55.59
2023-02-27T11:21:22.727Z,56.50
2023-02-27T11:24:03.864Z,56.80
2023-02-27T11:26:33.133Z,55.94
2023-02-27T11:29:07.440Z,56.34
2023-02-27T11:31:36.747Z,55.52
2023-02-27T11:34:04.925Z,55.47
2023-02-27T11:36:46.838Z,55.90
2023-02-27T11:39:30.385Z,57.43
2023-02-27T11:41:59.294Z,54.48
2023-02-27T11:44:50.586Z,54.64
2023-02-27T11:47:30.293Z,54.71
2023-02-27T11:50:32.532Z,55.60
2023-02-27T11:53:04.905Z,56.52
2023-02-27T11:55:32.248Z,54.16
2023-02-27T11:58:13.741Z,54.02
2023-02-27T12:00:45.489Z,52.97
2023-02-27T12:03:20.687Z,56.14
2023-02-27T12:05:51.028Z,53.59
2023-02-27T12:08:48.598Z,54.04
2023-02-27T12:11:20.587Z,54.40
2023-02-27T12:13:52.865Z,54.13
2023-02-27T12:16:27.386Z,52.79
2023-02-27T12:19:00.301Z,53.14
2023-02-27T12:21:31.920Z,53.06
2023-02-27T12:24:10.459Z,53.22
2023-02-27T12:26:40.731Z,52.59
2023-02-27T12:29:26.224Z,53.06
2023-02-27T12:31:59.782Z,52.92
2023-02-27T12:34:29.403Z,52.34
2023-02-27T12:37:25.246Z,53.20
2023-02-27T12:39:54.419Z,52.55
2023-02-27T12:42:36.641Z,52.34
2023-02-27T12:45:31.270Z,52.09
2023-02-27T12:48:16.497Z,53.61
2023-02-27T12:50:54.683Z,54.13
2023-02-27T12:53:31.007Z,52.69
2023-02-27T12:56:21.753Z,53.18
2023-02-27T12:58:58.798Z,53.44
2023-02-27T13:01:48.110Z,53.45
2023-02-27T13:04:26.033Z,53.72
2023-02-27T13:07:08.549Z,54.05
2023-02-27T13:09:51.990Z,53.67
2023-02-27T13:13:12.893Z,53.39
2023-02-27T13:15:54.445Z,53.11
2023-02-27T13:18:39.469Z,53.44
2023-02-27T13:21:12.313Z,53.84
2023-02-27T13:24:13.291Z,54.94
2023-02-27T13:26:48.022Z,54.63
2023-02-27T13:29:16.456Z,55.22
2023-02-27T13:32:04.125Z,55.18
2023-02-27T13:34:37.100Z,55.21
2023-02-27T13:37:06.101Z,55.33
2023-02-27T13:39:46.873Z,55.57
2023-02-27T13:42:25.447Z,55.61
2023-02-27T13:44:54.188Z,54.36
2023-02-27T13:47:29.345Z,55.09
2023-02-27T13:50:01.966Z,54.57
2023-02-27T13:52:37.655Z,54.58
2023-02-27T13:55:12.061Z,54.32
2023-02-27T13:57:39.012Z,53.91
2023-02-27T14:00:08.990Z,53.40
2023-02-27T14:02:59.737Z,54.31
2023-02-27T14:05:35.096Z,53.64
2023-02-27T14:08:16.776Z,52.83
2023-02-27T14:11:16.284Z,53.16
2023-02-27T14:13:49.199Z,52.88
2023-02-27T14:16:37.653Z,53.60
2023-02-27T14:19:16.399Z,53.57
2023-02-27T14:21:57.913Z,54.09
2023-02-27T14:24:44.782Z,54.31
2023-02-27T14:27:22.498Z,53.71
2023-02-27T14:29:52.037Z,53.46
2023-02-27T14:32:26.190Z,53.08
2023-02-27T14:34:54.784Z,52.76
2023-02-27T14:37:25.806Z,52.72
2023-02-27T14:39:54.562Z,53.56
2023-02-27T14:42:46.259Z,54.22
2023-02-27T14:45:18.365Z,54.52
2023-02-27T14:47:46.627Z,54.03
2023-02-27T14:50:34.045Z,53.88
2023-02-27T14:53:01.649Z,53.31
2023-02-27T14:55:37.186Z,53.29
2023-02-27T14:58:21.440Z,53.97
2023-02-27T15:00:58.099Z,53.58
2023-02-27T15:03:30.035Z,53.45
2023-02-27T15:05:59.259Z,55.00
2023-02-27T15:08:29.717Z,54.16
2023-02-27T15:10:58.448Z,53.58
2023-02-27T15:13:29.391Z,53.72
2023-02-27T15:16:21.090Z,54.14
2023-02-27T15:18:52.197Z,54.16
2023-02-27T15:21:20.895Z,53.81
2023-02-27T15:24:02.025Z,54.65
2023-02-27T15:26:30.894Z,54.42
2023-02-27T15:28:59.822Z,54.52
2023-02-27T15:31:31.005Z,54.51
2023-02-27T15:33:59.732Z,54.58
2023-02-27T15:36:30.723Z,54.90
2023-02-27T15:39:15.357Z,55.26
2023-02-27T15:41:49.127Z,55.35
2023-02-27T15:44:18.588Z,55.29
2023-02-27T15:46:46.819Z,55.40
2023-02-27T15:49:22.811Z,55.83
2023-02-27T15:51:59.165Z,55.73
2023-02-27T15:54:26.266Z,55.02
2023-02-27T15:56:53.693Z,54.81
2023-02-27T15:59:20.383Z,54.96
2023-02-27T16:01:49.501Z,55.54
2023-02-27T16:04:24.023Z,55.44
2023-02-27T16:07:01.712Z,56.22
2023-02-27T16:09:34.071Z,56.24
2023-02-27T16:12:25.355Z,56.42
2023-02-27T16:14:53.480Z,56.19
2023-02-27T16:17:26.984Z,57.54
2023-02-27T16:19:54.937Z,57.00
2023-02-27T16:22:22.592Z,56.94
2023-02-27T16:24:49.788Z,58.12
2023-02-27T16:27:29.904Z,58.39
2023-02-27T16:30:02.485Z,57.81
2023-02-27T16:32:39.741Z,59.60
2023-02-27T16:35:15.074Z,58.49
2023-02-27T16:37:43.385Z,58.42
2023-02-27T16:40:16.710Z,57.74
2023-02-27T16:42:44.127Z,58.12
2023-02-27T16:45:16.784Z,58.03
2023-02-27T16:47:43.711Z,58.07
2023-02-27T16:50:19.130Z,59.25
2023-02-27T16:52:45.912Z,58.06
2023-02-27T16:55:12.582Z,58.34
2023-02-27T16:57:39.145Z,58.40
2023-02-27T17:00:09.653Z,58.72
2023-02-27T17:02:36.196Z,58.85
2023-02-27T17:05:02.914Z,58.93
2023-02-27T17:07:30.406Z,59.15
2023-02-27T17:09:57.088Z,59.37
2023-02-27T17:12:23.543Z,59.45
2023-02-27T17:14:50.015Z,59.61
2023-02-27T17:17:16.527Z,59.82
2023-02-27T17:19:43.255Z,60.06
2023-02-27T17:22:09.699Z,60.33
2023-02-27T17:24:37.334Z,60.67
2023-02-27T17:27:03.932Z,60.67
2023-02-27T17:29:30.667Z,60.69
2023-02-27T17:31:57.595Z,61.10
2023-02-27T17:34:24.855Z,61.26
2023-02-27T17:36:51.488Z,61.51
2023-02-27T17:39:18.060Z,62.00
2023-02-27T17:41:45.120Z,61.69
2023-02-27T17:44:12.364Z,62.03
2023-02-27T17:46:40.315Z,62.24
2023-02-27T17:49:07.242Z,62.63
2023-02-27T17:51:33.984Z,62.88
2023-02-27T17:54:02.101Z,62.79
2023-02-27T17:56:29.054Z,63.22
2023-02-27T17:58:55.731Z,63.34
2023-02-27T18:01:25.755Z,63.58
2023-02-27T18:03:54.798Z,63.89
2023-02-27T18:06:22.685Z,64.00
2023-02-27T18:08:49.622Z,64.37
2023-02-27T18:11:18.871Z,64.76
2023-02-27T18:13:46.522Z,65.13
2023-02-27T18:16:13.342Z,65.26
2023-02-27T18:18:41.418Z,65.76
2023-02-27T18:21:14.361Z,66.37
2023-02-27T18:23:42.137Z,66.53
2023-02-27T18:26:27.165Z,66.57
2023-02-27T18:28:56.603Z,66.99
2023-02-27T18:31:29.865Z,67.34
2023-02-27T18:33:56.520Z,67.58
2023-02-27T18:36:23.118Z,68.04
2023-02-27T18:38:49.552Z,68.70
2023-02-27T18:41:16.007Z,69.00
2023-02-27T18:43:43.645Z,69.02
2023-02-27T18:46:12.664Z,69.18
2023-02-27T18:48:40.548Z,69.44
2023-02-27T18:51:12.213Z,69.65
2023-02-27T18:53:40.811Z,69.97
2023-02-27T18:56:09.047Z,70.15
2023-02-27T18:58:36.396Z,70.32
2023-02-27T19:01:07.359Z,70.37
2023-02-27T19:03:35.946Z,70.79
2023-02-27T19:06:02.670Z,70.96
2023-02-27T19:08:29.271Z,71.19
2023-02-27T19:10:57.188Z,71.53
2023-02-27T19:13:25.284Z,71.71
2023-02-27T19:15:52.523Z,71.81
2023-02-27T19:18:19.349Z,72.03
2023-02-27T19:20:46.035Z,72.02
2023-02-27T19:23:12.544Z,72.24
2023-02-27T19:25:39.221Z,72.38
2023-02-27T19:28:06.341Z,72.49
2023-02-27T19:30:32.812Z,72.77
2023-02-27T19:32:59.325Z,72.90
2023-02-27T19:35:25.801Z,72.83
2023-02-27T19:37:56.888Z,73.25
2023-02-27T19:40:24.525Z,73.57
2023-02-27T19:42:51.519Z,73.69
2023-02-27T19:45:18.531Z,73.91
2023-02-27T19:47:46.497Z,74.19
2023-02-27T19:50:13.065Z,74.26
2023-02-27T19:52:39.531Z,74.43
2023-02-27T19:55:06.523Z,74.81
2023-02-27T19:57:34.954Z,75.10
2023-02-27T20:00:01.494Z,75.27
2023-02-27T20:02:28.120Z,75.47
2023-02-27T20:04:54.673Z,75.65
2023-02-27T20:07:21.174Z,75.72
2023-02-27T20:09:47.673Z,75.88
2023-02-27T20:12:14.481Z,75.84
2023-02-27T20:14:41.603Z,76.19
2023-02-27T20:17:08.349Z,76.33
2023-02-27T20:19:36.351Z,76.43
2023-02-27T20:22:03.459Z,76.66
2023-02-27T20:24:29.975Z,77.08
2023-02-27T20:26:59.147Z,76.92
2023-02-27T20:29:27.587Z,77.29
2023-02-27T20:31:55.429Z,77.34
2023-02-27T20:34:26.116Z,77.61
2023-02-27T20:36:54.586Z,77.66
2023-02-27T20:39:22.842Z,77.95
2023-02-27T20:41:49.508Z,77.89
2023-02-27T20:44:16.365Z,78.20
2023-02-27T20:46:44.176Z,78.31
2023-02-27T20:49:14.929Z,78.48
2023-02-27T20:51:42.203Z,78.62
2023-02-27T20:54:13.708Z,78.81
2023-02-27T20:56:41.324Z,79.03
2023-02-27T20:59:11.826Z,79.23
2023-02-27T21:01:38.877Z,79.38
2023-02-27T21:04:06.050Z,79.34
2023-02-27T21:06:32.808Z,79.67
2023-02-27T21:09:03.821Z,79.85
2023-02-27T21:11:32.153Z,80.10
2023-02-27T21:14:03.242Z,80.22
2023-02-27T21:16:29.985Z,80.35
2023-02-27T21:18:56.880Z,80.65
2023-02-27T21:21:27.689Z,80.69
2023-02-27T21:23:54.752Z,80.86
2023-02-27T21:26:24.985Z,81.17
2023-02-27T21:29:00.489Z,81.18
2023-02-27T21:31:30.941Z,81.34
2023-02-27T21:34:00.112Z,81.65
2023-02-27T21:36:29.261Z,81.55
2023-02-27T21:38:58.523Z,81.62
2023-02-27T21:41:25.144Z,82.07
2023-02-27T21:43:51.620Z,82.19
2023-02-27T21:46:20.683Z,82.29
2023-02-27T21:48:47.314Z,82.43
2023-02-27T21:51:13.982Z,82.54
2023-02-27T21:53:40.514Z,82.57
2023-02-27T21:56:10.609Z,82.92
2023-02-27T21:58:38.039Z,82.85
2023-02-27T22:01:15.417Z,82.95
2023-02-27T22:03:46.682Z,83.34
2023-02-27T22:06:14.919Z,83.30
2023-02-27T22:08:41.593Z,83.81
2023-02-27T22:11:08.540Z,83.90
2023-02-27T22:13:35.900Z,84.09
2023-02-27T22:16:11.688Z,85.45
2023-02-27T22:18:39.467Z,85.74
2023-02-27T22:21:12.559Z,86.23
2023-02-27T22:23:39.819Z,86.74
2023-02-27T22:26:12.598Z,87.17
2023-02-27T22:28:41.228Z,86.34
2023-02-27T22:31:30.232Z,85.48
2023-02-27T22:34:01.016Z,85.04
2023-02-27T22:36:29.464Z,84.83
2023-02-27T22:38:56.763Z,84.51
2023-02-27T22:41:27.799Z,84.53
2023-02-27T22:43:55.421Z,84.29
2023-02-27T22:46:33.016Z,84.23
2023-02-27T22:49:05.307Z,84.42
2023-02-27T22:51:32.222Z,84.65
2023-02-27T22:54:01.694Z,84.52
2023-02-27T22:56:28.580Z,84.77
2023-02-27T22:58:55.119Z,84.83
2023-02-27T23:01:24.471Z,84.92
2023-02-27T23:03:53.239Z,84.92
2023-02-27T23:06:22.631Z,84.94
2023-02-27T23:08:49.758Z,85.02
2023-02-27T23:11:18.335Z,84.94
2023-02-27T23:13:44.937Z,85.08
2023-02-27T23:16:13.452Z,85.13
2023-02-27T23:18:43.138Z,85.25
2023-02-27T23:21:10.233Z,85.12
2023-02-27T23:23:36.909Z,85.53
2023-02-27T23:26:05.724Z,85.16
2023-02-27T23:28:34.353Z,85.23
2023-02-27T23:31:01.791Z,85.74
2023-02-27T23:33:29.359Z,85.85
2023-02-27T23:35:57.591Z,86.02
2023-02-27T23:38:25.180Z,86.54
2023-02-27T23:40:51.961Z,86.38
2023-02-27T23:43:18.566Z,86.53
2023-02-27T23:45:45.048Z,86.83
2023-02-27T23:48:11.690Z,87.05
2023-02-27T23:50:40.727Z,87.26
2023-02-27T23:53:07.604Z,87.72
2023-02-27T23:55:36.208Z,87.79
2023-02-27T23:58:05.594Z,87.69
